Webcam Flughafen St.Gallen-Altenrhein

Live-Bilder und Zeitraffer LSZR / ACH.

 

Live aus Altenrhein
LIVE
LSZR 050650Z VRB02KT 9999 FEW020 14/11 Q1020 NOSIG RMK C
Zeitraffer heute
2020-08-05 00:14:54
LSZR 042150Z AUTO 11002KT CAVOK 13/12 Q1019